Time;durP1;ratioP1;P1;durP2;ratioP2;P2;SDS_P1;SDS_P2;PMS_P1;PMS_P2;Temp;Humidity;BMP_temperature;BMP_pressure;BME280_temperature;BME280_humidity;BME280_pressure;Samples;Min_cycle;Max_cycle;Signal;HPM_P1;HPM_P2
2022/11/03 00:02:59;;;;;;;19.70;9.80;;;;;;;7.52;68.07;100911.31;30618659;28;96991;-78
2022/11/03 00:17:59;;;;;;;11.23;5.57;;;;;;;7.32;68.87;100923.63;30617992;28;97250;-77
2022/11/03 00:33:00;;;;;;;12.43;4.88;;;;;;;6.87;69.26;100922.09;30616251;28;97431;-71
2022/11/03 01:03:19;;;;;;;11.55;5.80;;;;;;;6.44;69.84;100915.91;30613862;28;96823;-72
2022/11/03 01:18:19;;;;;;;14.70;6.75;;;;;;;6.17;70.55;100905.75;30612128;28;100810;-73
2022/11/03 01:33:19;;;;;;;11.88;6.70;;;;;;;5.82;70.67;100907.56;30610466;28;101797;-69
2022/11/03 01:48:21;;;;;;;11.63;6.55;;;;;;;5.62;71.56;100901.22;30625475;28;116354;-67
2022/11/03 02:03:22;;;;;;;12.38;6.90;;;;;;;5.27;72.00;100893.41;30631587;28;96752;-74
2022/11/03 02:18:28;;;;;;;20.63;7.55;;;;;;;4.99;71.96;100875.22;30629427;28;96970;-69
2022/11/03 02:33:51;;;;;;;12.20;7.32;;;;;;;4.74;72.34;100865.66;30628395;28;96787;-79
2022/11/03 02:48:51;;;;;;;20.70;11.23;;;;;;;4.48;72.77;100854.44;30625422;28;98038;-69
2022/11/03 03:04:05;;;;;;;16.15;8.60;;;;;;;4.20;73.13;100851.22;30624310;28;97829;-72
2022/11/03 03:19:25;;;;;;;23.20;8.82;;;;;;;4.01;73.22;100841.16;30623265;28;97653;-68
2022/11/03 03:34:27;;;;;;;22.13;11.30;;;;;;;3.80;73.48;100825.09;30621957;28;97121;-68
2022/11/03 03:49:27;;;;;;;14.55;8.57;;;;;;;3.64;73.84;100823.56;30618084;28;97492;-67
2022/11/03 04:04:27;;;;;;;20.25;9.82;;;;;;;3.43;74.59;100815.41;30617355;28;96719;-73
2022/11/03 04:34:47;;;;;;;17.58;8.65;;;;;;;3.23;75.19;100790.47;30614861;28;97429;-70
2022/11/03 04:49:47;;;;;;;16.52;7.75;;;;;;;3.07;75.02;100790.69;30613541;28;97094;-80
2022/11/03 05:04:48;;;;;;;10.65;7.05;;;;;;;2.88;74.97;100784.09;30612028;28;97107;-67
2022/11/03 05:19:57;;;;;;;16.83;6.43;;;;;;;2.85;75.46;100772.94;30610637;28;96685;-66
2022/11/03 05:34:57;;;;;;;27.92;9.55;;;;;;;2.78;75.54;100767.25;30620035;28;97168;-67
2022/11/03 05:50:13;;;;;;;29.15;9.48;;;;;;;2.75;76.32;100754.31;30607218;28;96750;-67
2022/11/03 06:05:18;;;;;;;19.02;9.45;;;;;;;2.98;75.96;100742.19;30604111;28;97100;-67
2022/11/03 06:20:21;;;;;;;22.50;8.80;;;;;;;3.48;76.31;100744.78;30602425;28;97481;-67
2022/11/03 06:35:22;;;;;;;14.20;7.10;;;;;;;4.31;76.72;100760.75;30618207;28;97326;-69
2022/11/03 06:50:29;;;;;;;13.02;6.85;;;;;;;5.85;76.72;100769.84;30620687;28;96604;-70
2022/11/03 07:05:31;;;;;;;20.17;7.60;;;;;;;7.77;74.83;100758.84;30621665;28;97195;-66
2022/11/03 07:20:31;;;;;;;17.93;7.63;;;;;;;9.13;72.49;100746.31;30618440;28;97279;-69
2022/11/03 07:35:35;;;;;;;14.45;6.25;;;;;;;10.57;69.93;100757.03;30616147;28;111802;-68
2022/11/03 07:50:37;;;;;;;15.27;6.87;;;;;;;11.89;68.29;100724.69;30615977;28;96906;-70
2022/11/03 08:05:37;;;;;;;12.60;6.20;;;;;;;14.21;64.50;100718.31;30614701;28;96851;-68
2022/11/03 08:20:37;;;;;;;11.80;5.43;;;;;;;20.38;54.62;100695.28;30612007;28;119413;-69
2022/11/03 08:35:38;;;;;;;13.52;5.32;;;;;;;26.75;37.83;100681.78;30609794;28;111530;-70
2022/11/03 08:50:39;;;;;;;12.93;4.67;;;;;;;29.41;29.39;100645.31;30608289;28;98050;-69
2022/11/03 09:05:39;;;;;;;10.73;5.00;;;;;;;32.40;24.37;100625.63;30607587;28;97569;-70
2022/11/03 09:20:40;;;;;;;8.73;3.15;;;;;;;34.45;20.36;100609.09;30606949;28;97079;-67
2022/11/03 09:35:41;;;;;;;14.30;4.00;;;;;;;31.83;20.23;100572.72;30601650;28;96818;-68
2022/11/03 09:50:42;;;;;;;9.57;4.32;;;;;;;26.81;24.47;100556.91;30576946;28;97151;-71
2022/11/03 10:05:46;;;;;;;7.15;3.17;;;;;;;23.69;27.74;100551.88;30612532;28;96849;-71
2022/11/03 10:20:46;;;;;;;6.57;3.17;;;;;;;24.22;28.44;100533.31;30622043;28;97413;-70
2022/11/03 10:35:47;;;;;;;7.57;3.07;;;;;;;26.41;25.58;100495.56;30615747;28;106613;-68
2022/11/03 10:50:47;;;;;;;4.63;2.13;;;;;;;28.72;22.94;100490.81;30612826;28;98221;-75
2022/11/03 11:05:48;;;;;;;10.45;5.15;;;;;;;33.30;19.55;100453.09;30611673;28;97238;-69
2022/11/03 11:20:48;;;;;;;11.23;5.18;;;;;;;33.57;18.02;100423.63;30609439;28;97746;-67
2022/11/03 11:35:48;;;;;;;6.22;2.10;;;;;;;36.00;16.80;100383.19;30617732;28;107783;-71
2022/11/03 11:50:49;;;;;;;10.57;2.60;;;;;;;36.61;15.64;100354.91;30615307;28;97411;-74
2022/11/03 12:05:49;;;;;;;5.75;2.10;;;;;;;36.48;15.34;100334.66;30612016;28;96954;-67
2022/11/03 12:20:50;;;;;;;7.35;2.38;;;;;;;36.29;15.45;100315.72;30603507;28;97393;-70
2022/11/03 12:35:50;;;;;;;4.70;2.10;;;;;;;35.98;15.47;100308.69;30596239;28;97076;-73
2022/11/03 12:50:51;;;;;;;7.93;1.98;;;;;;;37.89;13.97;100278.03;30603419;28;97346;-67
2022/11/03 13:05:51;;;;;;;5.70;1.95;;;;;;;36.07;14.94;100245.66;30608466;28;97078;-70
2022/11/03 13:20:51;;;;;;;7.72;2.33;;;;;;;36.85;14.45;100239.56;30606937;28;98217;-68
2022/11/03 13:35:52;;;;;;;11.38;3.67;;;;;;;32.86;17.93;100206.50;30614795;28;97414;-66
2022/11/03 13:50:52;;;;;;;11.77;3.33;;;;;;;28.76;20.96;100173.94;30641121;28;96732;-76
2022/11/03 14:05:53;;;;;;;6.13;3.03;;;;;;;22.79;27.36;100154.13;30640129;28;97071;-70
2022/11/03 14:20:53;;;;;;;7.28;4.50;;;;;;;19.57;32.27;100126.81;30636450;28;97299;-70
2022/11/03 14:35:53;;;;;;;10.68;3.42;;;;;;;19.00;33.78;100122.63;30644746;28;97100;-71
2022/11/03 14:50:54;;;;;;;11.40;4.05;;;;;;;17.15;36.57;100117.59;30631337;28;96887;-70
2022/11/03 15:05:54;;;;;;;11.95;3.83;;;;;;;15.66;39.52;100093.09;30623384;28;97288;-67
2022/11/03 15:20:55;;;;;;;7.30;3.35;;;;;;;14.30;42.14;100076.78;30620001;28;96946;-71
2022/11/03 15:35:55;;;;;;;14.60;6.10;;;;;;;13.02;45.17;100044.63;30616977;28;96745;-70
2022/11/03 15:50:55;;;;;;;17.85;6.32;;;;;;;12.11;47.33;100018.25;30615338;28;96957;-68
2022/11/03 16:05:56;;;;;;;12.98;6.20;;;;;;;11.38;48.83;99997.41;30614548;28;96743;-71
2022/11/03 16:20:56;;;;;;;14.40;6.53;;;;;;;10.86;50.37;99974.19;30615957;28;96668;-71
2022/11/03 16:35:57;;;;;;;13.52;7.32;;;;;;;10.45;52.02;99957.44;30605571;28;97084;-70
2022/11/03 16:50:58;;;;;;;17.60;6.60;;;;;;;10.19;53.21;99954.22;30602589;28;97314;-68
2022/11/03 17:05:58;;;;;;;15.30;6.63;;;;;;;9.99;54.52;99931.53;30597939;28;97116;-69
2022/11/03 17:20:59;;;;;;;11.50;5.45;;;;;;;9.76;55.24;99902.19;30596747;28;97178;-67
2022/11/03 17:36:00;;;;;;;12.13;6.88;;;;;;;9.60;56.29;99894.25;30595874;28;97960;-70
2022/11/03 17:51:04;;;;;;;16.93;8.20;;;;;;;9.36;56.73;99872.03;30595421;28;97318;-68
2022/11/03 18:06:15;;;;;;;16.90;7.50;;;;;;;9.10;57.51;99851.84;30593914;28;97597;-68
2022/11/03 18:21:18;;;;;;;17.27;8.50;;;;;;;8.91;58.39;99826.47;30598206;28;97855;-70
2022/11/03 18:36:19;;;;;;;15.57;8.40;;;;;;;8.83;59.10;99799.06;30543771;28;97209;-69
2022/11/03 18:51:19;;;;;;;20.30;10.17;;;;;;;8.72;60.02;99774.53;30597045;28;97213;-68
2022/11/03 19:06:20;;;;;;;22.30;10.73;;;;;;;8.62;61.16;99737.56;30608343;28;97337;-73
2022/11/03 19:21:22;;;;;;;27.88;11.88;;;;;;;8.54;61.62;99708.31;30611864;28;98396;-72
2022/11/03 19:36:23;;;;;;;44.53;15.20;;;;;;;8.56;62.10;99687.75;30609317;28;97997;-71
2022/11/03 19:51:24;;;;;;;23.53;10.20;;;;;;;8.54;62.36;99665.84;30611422;28;96871;-69
2022/11/03 20:06:25;;;;;;;18.13;8.52;;;;;;;8.57;62.88;99643.44;30607662;28;96980;-71
2022/11/03 20:21:25;;;;;;;20.55;9.32;;;;;;;8.67;63.20;99628.16;30608626;28;96642;-69
2022/11/03 20:36:26;;;;;;;24.08;9.68;;;;;;;8.81;63.65;99630.06;30605735;28;96767;-72
2022/11/03 20:51:31;;;;;;;20.98;10.93;;;;;;;8.92;64.24;99598.84;30602224;28;96832;-71
2022/11/03 21:06:31;;;;;;;21.70;10.83;;;;;;;9.05;64.41;99569.88;30598231;28;96744;-70
2022/11/03 21:21:32;;;;;;;20.98;11.95;;;;;;;9.16;64.50;99547.38;30612768;28;96790;-69
2022/11/03 21:36:32;;;;;;;27.58;11.52;;;;;;;9.19;65.01;99523.09;30612048;28;96945;-70
2022/11/03 21:51:33;;;;;;;20.98;10.85;;;;;;;9.29;65.27;99494.47;30605923;28;97431;-71
2022/11/03 22:06:33;;;;;;;21.70;11.25;;;;;;;9.40;65.17;99466.59;30627304;28;97916;-71
2022/11/03 22:36:52;;;;;;;18.30;11.17;;;;;;;9.56;66.08;99408.97;30627619;28;97073;-69
2022/11/03 22:51:52;;;;;;;20.58;11.15;;;;;;;9.56;66.15;99407.13;30625960;28;96690;-68
2022/11/03 23:06:53;;;;;;;20.08;11.23;;;;;;;9.51;66.05;99385.56;30624849;28;97330;-71
2022/11/03 23:21:54;;;;;;;24.13;12.13;;;;;;;9.48;66.50;99376.13;30621504;28;98579;-68
2022/11/03 23:36:54;;;;;;;20.00;11.10;;;;;;;9.55;66.82;99372.75;30622577;28;96951;-67
2022/11/03 23:51:55;;;;;;;20.20;11.27;;;;;;;9.42;67.07;99362.78;30620527;28;96819;-68
